sensor_id;sensor_type;location;lat;lon;timestamp;pressure;altitude;pressure_sealevel;temperature;humidity
52535;BME280;38443;53.164;5.802;2023-06-10T00:00:00;101857.75;;;14.61;100.00
52535;BME280;38443;53.164;5.802;2023-06-10T00:02:26;101856.97;;;14.58;100.00
52535;BME280;38443;53.164;5.802;2023-06-10T00:04:51;101856.09;;;14.55;100.00
52535;BME280;38443;53.164;5.802;2023-06-10T00:07:18;101860.69;;;14.52;100.00
52535;BME280;38443;53.164;5.802;2023-06-10T00:09:43;101865.22;;;14.51;100.00
52535;BME280;38443;53.164;5.802;2023-06-10T00:12:09;101867.94;;;14.50;100.00
52535;BME280;38443;53.164;5.802;2023-06-10T00:14:39;101868.91;;;14.47;100.00
52535;BME280;38443;53.164;5.802;2023-06-10T00:17:05;101864.44;;;14.46;100.00
52535;BME280;38443;53.164;5.802;2023-06-10T00:19:35;101871.72;;;14.43;100.00
52535;BME280;38443;53.164;5.802;2023-06-10T00:22:01;101873.53;;;14.42;100.00
52535;BME280;38443;53.164;5.802;2023-06-10T00:24:28;101867.34;;;14.39;100.00
52535;BME280;38443;53.164;5.802;2023-06-10T00:26:53;101860.25;;;14.36;100.00
52535;BME280;38443;53.164;5.802;2023-06-10T00:29:19;101866.66;;;14.32;100.00
52535;BME280;38443;53.164;5.802;2023-06-10T00:31:44;101864.88;;;14.31;100.00
52535;BME280;38443;53.164;5.802;2023-06-10T00:34:10;101868.53;;;14.28;100.00
52535;BME280;38443;53.164;5.802;2023-06-10T00:36:35;101865.88;;;14.27;100.00
52535;BME280;38443;53.164;5.802;2023-06-10T00:39:01;101868.59;;;14.27;100.00
52535;BME280;38443;53.164;5.802;2023-06-10T00:41:26;101865.88;;;14.27;100.00
52535;BME280;38443;53.164;5.802;2023-06-10T00:43:52;101879.47;;;14.24;100.00
52535;BME280;38443;53.164;5.802;2023-06-10T00:46:17;101867.88;;;14.20;100.00
52535;BME280;38443;53.164;5.802;2023-06-10T00:48:45;101874.28;;;14.16;100.00
52535;BME280;38443;53.164;5.802;2023-06-10T00:51:11;101877.84;;;14.16;100.00
52535;BME280;38443;53.164;5.802;2023-06-10T00:53:39;101869.88;;;14.13;100.00
52535;BME280;38443;53.164;5.802;2023-06-10T00:56:06;101873.47;;;14.12;100.00
52535;BME280;38443;53.164;5.802;2023-06-10T00:58:32;101875.31;;;14.10;100.00
52535;BME280;38443;53.164;5.802;2023-06-10T01:00:57;101876.38;;;14.05;100.00
52535;BME280;38443;53.164;5.802;2023-06-10T01:03:23;101880.03;;;14.02;100.00
52535;BME280;38443;53.164;5.802;2023-06-10T01:05:54;101883.72;;;14.00;100.00
52535;BME280;38443;53.164;5.802;2023-06-10T01:09:08;101883.75;;;13.98;100.00
52535;BME280;38443;53.164;5.802;2023-06-10T01:11:47;101876.63;;;13.95;100.00
52535;BME280;38443;53.164;5.802;2023-06-10T01:14:15;101879.38;;;13.94;100.00
52535;BME280;38443;53.164;5.802;2023-06-10T01:16:41;101887.44;;;13.94;100.00
52535;BME280;38443;53.164;5.802;2023-06-10T01:19:07;101884.78;;;13.92;100.00
52535;BME280;38443;53.164;5.802;2023-06-10T01:21:33;101894.69;;;13.92;100.00
52535;BME280;38443;53.164;5.802;2023-06-10T01:23:58;101885.72;;;13.91;100.00
52535;BME280;38443;53.164;5.802;2023-06-10T01:26:30;101893.03;;;13.86;100.00
52535;BME280;38443;53.164;5.802;2023-06-10T01:29:03;101894.91;;;13.83;100.00
52535;BME280;38443;53.164;5.802;2023-06-10T01:31:52;101895.03;;;13.78;100.00
52535;BME280;38443;53.164;5.802;2023-06-10T01:34:23;101887.13;;;13.72;100.00
52535;BME280;38443;53.164;5.802;2023-06-10T01:36:49;101893.47;;;13.69;100.00
52535;BME280;38443;53.164;5.802;2023-06-10T01:39:16;101892.63;;;13.67;100.00
52535;BME280;38443;53.164;5.802;2023-06-10T01:41:42;101890.94;;;13.63;100.00
52535;BME280;38443;53.164;5.802;2023-06-10T01:44:08;101890.09;;;13.61;100.00
52535;BME280;38443;53.164;5.802;2023-06-10T01:46:34;101886.56;;;13.59;100.00
52535;BME280;38443;53.164;5.802;2023-06-10T01:48:59;101887.53;;;13.55;100.00
52535;BME280;38443;53.164;5.802;2023-06-10T01:51:25;101884.91;;;13.53;100.00
52535;BME280;38443;53.164;5.802;2023-06-10T01:53:50;101883.16;;;13.51;100.00
52535;BME280;38443;53.164;5.802;2023-06-10T01:56:15;101884.97;;;13.50;100.00
52535;BME280;38443;53.164;5.802;2023-06-10T01:58:44;101883.16;;;13.51;100.00
52535;BME280;38443;53.164;5.802;2023-06-10T02:01:09;101890.28;;;13.53;100.00
52535;BME280;38443;53.164;5.802;2023-06-10T02:03:35;101888.50;;;13.52;100.00
52535;BME280;38443;53.164;5.802;2023-06-10T02:06:01;101888.53;;;13.51;100.00
52535;BME280;38443;53.164;5.802;2023-06-10T02:08:26;101882.38;;;13.47;100.00
52535;BME280;38443;53.164;5.802;2023-06-10T02:10:53;101883.28;;;13.46;100.00
52535;BME280;38443;53.164;5.802;2023-06-10T02:13:19;101882.53;;;13.41;100.00
52535;BME280;38443;53.164;5.802;2023-06-10T02:15:44;101885.25;;;13.38;100.00
52535;BME280;38443;53.164;5.802;2023-06-10T02:18:09;101887.09;;;13.36;100.00
52535;BME280;38443;53.164;5.802;2023-06-10T02:20:37;101883.59;;;13.32;100.00
52535;BME280;38443;53.164;5.802;2023-06-10T02:23:02;101887.25;;;13.30;100.00
52535;BME280;38443;53.164;5.802;2023-06-10T02:25:28;101887.34;;;13.25;100.00
52535;BME280;38443;53.164;5.802;2023-06-10T02:27:53;101889.19;;;13.23;100.00
52535;BME280;38443;53.164;5.802;2023-06-10T02:30:19;101900.84;;;13.22;100.00
52535;BME280;38443;53.164;5.802;2023-06-10T02:32:44;101900.03;;;13.18;100.00
52535;BME280;38443;53.164;5.802;2023-06-10T02:35:13;101896.50;;;13.16;100.00
52535;BME280;38443;53.164;5.802;2023-06-10T02:37:39;101898.31;;;13.14;100.00
52535;BME280;38443;53.164;5.802;2023-06-10T02:40:07;101901.13;;;13.10;100.00
52535;BME280;38443;53.164;5.802;2023-06-10T02:42:33;101895.78;;;13.08;100.00
52535;BME280;38443;53.164;5.802;2023-06-10T02:44:59;101894.97;;;13.05;100.00
52535;BME280;38443;53.164;5.802;2023-06-10T02:47:26;101900.44;;;13.02;100.00
52535;BME280;38443;53.164;5.802;2023-06-10T02:49:51;101901.41;;;12.97;100.00
52535;BME280;38443;53.164;5.802;2023-06-10T02:52:17;101903.28;;;12.94;100.00
52535;BME280;38443;53.164;5.802;2023-06-10T02:54:42;101896.19;;;12.90;100.00
52535;BME280;38443;53.164;5.802;2023-06-10T02:57:07;101902.53;;;12.87;100.00
52535;BME280;38443;53.164;5.802;2023-06-10T02:59:33;101908.00;;;12.83;100.00
52535;BME280;38443;53.164;5.802;2023-06-10T03:01:58;101894.63;;;12.80;100.00
52535;BME280;38443;53.164;5.802;2023-06-10T03:04:26;101903.66;;;12.77;100.00
52535;BME280;38443;53.164;5.802;2023-06-10T03:06:54;101900.13;;;12.75;100.00
52535;BME280;38443;53.164;5.802;2023-06-10T03:09:19;101908.22;;;12.72;100.00
52535;BME280;38443;53.164;5.802;2023-06-10T03:11:45;101907.38;;;12.70;100.00
52535;BME280;38443;53.164;5.802;2023-06-10T03:14:10;101915.47;;;12.68;100.00
52535;BME280;38443;53.164;5.802;2023-06-10T03:16:36;101912.81;;;12.67;100.00
52535;BME280;38443;53.164;5.802;2023-06-10T03:19:06;101911.94;;;12.65;100.00
52535;BME280;38443;53.164;5.802;2023-06-10T03:21:31;101911.16;;;12.61;100.00
52535;BME280;38443;53.164;5.802;2023-06-10T03:23:56;101908.50;;;12.60;100.00
52535;BME280;38443;53.164;5.802;2023-06-10T03:26:22;101909.44;;;12.57;100.00
52535;BME280;38443;53.164;5.802;2023-06-10T03:28:47;101910.38;;;12.54;100.00
52535;BME280;38443;53.164;5.802;2023-06-10T03:31:13;101909.53;;;12.52;100.00
52535;BME280;38443;53.164;5.802;2023-06-10T03:33:38;101907.78;;;12.51;100.00
52535;BME280;38443;53.164;5.802;2023-06-10T03:36:04;101916.72;;;12.50;100.00
52535;BME280;38443;53.164;5.802;2023-06-10T03:38:30;101904.22;;;12.49;100.00
52535;BME280;38443;53.164;5.802;2023-06-10T03:40:55;101916.78;;;12.49;100.00
52535;BME280;38443;53.164;5.802;2023-06-10T03:43:20;101908.75;;;12.47;100.00
52535;BME280;38443;53.164;5.802;2023-06-10T03:45:46;101924.84;;;12.47;100.00
52535;BME280;38443;53.164;5.802;2023-06-10T03:48:13;101917.72;;;12.45;100.00
52535;BME280;38443;53.164;5.802;2023-06-10T03:50:38;101912.34;;;12.45;100.00
52535;BME280;38443;53.164;5.802;2023-06-10T03:53:04;101906.09;;;12.44;100.00
52535;BME280;38443;53.164;5.802;2023-06-10T03:55:29;101915.03;;;12.45;100.00
52535;BME280;38443;53.164;5.802;2023-06-10T03:57:56;101917.72;;;12.45;100.00
52535;BME280;38443;53.164;5.802;2023-06-10T04:00:21;101923.09;;;12.45;100.00
52535;BME280;38443;53.164;5.802;2023-06-10T04:02:47;101914.19;;;12.43;100.00
52535;BME280;38443;53.164;5.802;2023-06-10T04:05:16;101921.34;;;12.44;100.00
52535;BME280;38443;53.164;5.802;2023-06-10T04:07:42;101920.34;;;12.49;100.00
52535;BME280;38443;53.164;5.802;2023-06-10T04:10:10;101914.03;;;12.50;100.00
52535;BME280;38443;53.164;5.802;2023-06-10T04:12:36;101914.88;;;12.52;100.00
52535;BME280;38443;53.164;5.802;2023-06-10T04:15:02;101923.75;;;12.57;100.00
52535;BME280;38443;53.164;5.802;2023-06-10T04:17:27;101928.16;;;12.60;100.00
52535;BME280;38443;53.164;5.802;2023-06-10T04:19:53;101928.16;;;12.62;100.00
52535;BME280;38443;53.164;5.802;2023-06-10T04:22:20;101929.00;;;12.64;100.00
52535;BME280;38443;53.164;5.802;2023-06-10T04:24:45;101926.31;;;12.64;100.00
52535;BME280;38443;53.164;5.802;2023-06-10T04:27:11;101935.25;;;12.64;100.00
52535;BME280;38443;53.164;5.802;2023-06-10T04:29:36;101932.53;;;12.66;100.00
52535;BME280;38443;53.164;5.802;2023-06-10T04:32:01;101937.81;;;12.69;100.00
52535;BME280;38443;53.164;5.802;2023-06-10T04:34:27;101937.81;;;12.70;100.00
52535;BME280;38443;53.164;5.802;2023-06-10T04:36:53;101934.13;;;12.74;100.00
52535;BME280;38443;53.164;5.802;2023-06-10T04:39:18;101943.03;;;12.76;100.00
52535;BME280;38443;53.164;5.802;2023-06-10T04:41:45;101942.06;;;12.81;100.00
52535;BME280;38443;53.164;5.802;2023-06-10T04:44:10;101937.53;;;12.84;100.00
52535;BME280;38443;53.164;5.802;2023-06-10T04:46:36;101944.59;;;12.88;100.00
52535;BME280;38443;53.164;5.802;2023-06-10T04:49:01;101943.63;;;12.92;100.00
52535;BME280;38443;53.164;5.802;2023-06-10T04:51:26;101943.56;;;12.95;100.00
52535;BME280;38443;53.164;5.802;2023-06-10T04:53:51;101948.84;;;12.98;100.00
52535;BME280;38443;53.164;5.802;2023-06-10T04:56:17;101940.72;;;13.03;100.00
52535;BME280;38443;53.164;5.802;2023-06-10T04:58:42;101945.09;;;13.07;100.00
52535;BME280;38443;53.164;5.802;2023-06-10T05:01:08;101943.19;;;13.12;100.00
52535;BME280;38443;53.164;5.802;2023-06-10T05:03:33;101946.66;;;13.17;100.00
52535;BME280;38443;53.164;5.802;2023-06-10T05:05:58;101949.25;;;13.22;100.00
52535;BME280;38443;53.164;5.802;2023-06-10T05:08:24;101950.06;;;13.26;100.00
52535;BME280;38443;53.164;5.802;2023-06-10T05:10:49;101959.84;;;13.31;100.00
52535;BME280;38443;53.164;5.802;2023-06-10T05:13:16;101957.03;;;13.36;100.00
52535;BME280;38443;53.164;5.802;2023-06-10T05:15:41;101958.69;;;13.42;100.00
52535;BME280;38443;53.164;5.802;2023-06-10T05:18:10;101964.91;;;13.44;100.00
52535;BME280;38443;53.164;5.802;2023-06-10T05:20:35;101960.31;;;13.49;100.00
52535;BME280;38443;53.164;5.802;2023-06-10T05:23:01;101961.09;;;13.54;100.00
52535;BME280;38443;53.164;5.802;2023-06-10T05:25:28;101951.13;;;13.59;100.00
52535;BME280;38443;53.164;5.802;2023-06-10T05:27:53;101955.44;;;13.65;100.00
52535;BME280;38443;53.164;5.802;2023-06-10T05:30:18;101962.59;;;13.67;100.00
52535;BME280;38443;53.164;5.802;2023-06-10T05:32:44;101959.69;;;13.75;100.00
52535;BME280;38443;53.164;5.802;2023-06-10T05:35:09;101966.78;;;13.79;100.00
52535;BME280;38443;53.164;5.802;2023-06-10T05:37:34;101966.69;;;13.82;100.00
52535;BME280;38443;53.164;5.802;2023-06-10T05:40:02;101962.97;;;13.88;100.00
52535;BME280;38443;53.164;5.802;2023-06-10T05:42:29;101970.03;;;13.92;100.00
52535;BME280;38443;53.164;5.802;2023-06-10T05:44:54;101969.94;;;13.95;100.00
52535;BME280;38443;53.164;5.802;2023-06-10T05:47:19;101973.38;;;14.02;100.00
52535;BME280;38443;53.164;5.802;2023-06-10T05:49:45;101968.81;;;14.05;100.00
52535;BME280;38443;53.164;5.802;2023-06-10T05:52:13;101966.88;;;14.10;100.00
52535;BME280;38443;53.164;5.802;2023-06-10T05:54:38;101970.34;;;14.15;100.00
52535;BME280;38443;53.164;5.802;2023-06-10T05:57:04;101967.53;;;14.19;100.00
52535;BME280;38443;53.164;5.802;2023-06-10T05:59:30;101967.38;;;14.25;100.00
52535;BME280;38443;53.164;5.802;2023-06-10T06:01:56;101964.59;;;14.29;100.00
52535;BME280;38443;53.164;5.802;2023-06-10T06:04:21;101968.03;;;14.34;100.00
52535;BME280;38443;53.164;5.802;2023-06-10T06:06:46;101971.53;;;14.38;100.00
52535;BME280;38443;53.164;5.802;2023-06-10T06:09:12;101959.75;;;14.42;100.00
52535;BME280;38443;53.164;5.802;2023-06-10T06:11:37;101964.09;;;14.48;100.00
52535;BME280;38443;53.164;5.802;2023-06-10T06:14:03;101964.78;;;14.54;100.00
52535;BME280;38443;53.164;5.802;2023-06-10T06:16:28;101964.56;;;14.64;100.00
52535;BME280;38443;53.164;5.802;2023-06-10T06:18:53;101967.09;;;14.70;100.00
52535;BME280;38443;53.164;5.802;2023-06-10T06:21:19;101968.66;;;14.77;100.00
52535;BME280;38443;53.164;5.802;2023-06-10T06:23:44;101961.34;;;14.82;100.00
52535;BME280;38443;53.164;5.802;2023-06-10T06:26:09;101962.94;;;14.89;100.00
52535;BME280;38443;53.164;5.802;2023-06-10T06:28:35;101958.22;;;14.98;100.00
52535;BME280;38443;53.164;5.802;2023-06-10T06:31:00;101951.53;;;15.39;100.00
52535;BME280;38443;53.164;5.802;2023-06-10T06:33:26;101955.97;;;16.48;100.00
52535;BME280;38443;53.164;5.802;2023-06-10T06:35:51;101945.56;;;17.55;100.00
52535;BME280;38443;53.164;5.802;2023-06-10T06:38:17;101942.81;;;18.42;100.00
52535;BME280;38443;53.164;5.802;2023-06-10T06:40:42;101933.28;;;19.12;100.00
52535;BME280;38443;53.164;5.802;2023-06-10T06:43:07;101928.03;;;19.65;100.00
52535;BME280;38443;53.164;5.802;2023-06-10T06:45:33;101926.97;;;20.04;100.00
52535;BME280;38443;53.164;5.802;2023-06-10T06:47:59;101934.34;;;20.52;100.00
52535;BME280;38443;53.164;5.802;2023-06-10T06:50:24;101935.53;;;20.82;100.00
52535;BME280;38443;53.164;5.802;2023-06-10T06:52:50;101930.50;;;21.07;100.00
52535;BME280;38443;53.164;5.802;2023-06-10T06:55:15;101925.44;;;21.49;100.00
52535;BME280;38443;53.164;5.802;2023-06-10T06:57:40;101924.28;;;21.69;100.00
52535;BME280;38443;53.164;5.802;2023-06-10T07:00:06;101929.22;;;21.92;100.00
52535;BME280;38443;53.164;5.802;2023-06-10T07:02:33;101924.56;;;22.25;100.00
52535;BME280;38443;53.164;5.802;2023-06-10T07:04:58;101923.94;;;22.64;100.00
52535;BME280;38443;53.164;5.802;2023-06-10T07:07:24;101920.03;;;22.83;100.00
52535;BME280;38443;53.164;5.802;2023-06-10T07:09:49;101923.56;;;22.99;100.00
52535;BME280;38443;53.164;5.802;2023-06-10T07:12:15;101920.56;;;23.04;100.00
52535;BME280;38443;53.164;5.802;2023-06-10T07:14:40;101918.59;;;23.20;100.00
52535;BME280;38443;53.164;5.802;2023-06-10T07:17:05;101923.94;;;23.22;100.00
52535;BME280;38443;53.164;5.802;2023-06-10T07:19:31;101916.53;;;23.51;100.00
52535;BME280;38443;53.164;5.802;2023-06-10T07:21:56;101920.03;;;23.53;100.00
52535;BME280;38443;53.164;5.802;2023-06-10T07:24:21;101912.78;;;23.66;100.00
52535;BME280;38443;53.164;5.802;2023-06-10T07:26:47;101915.97;;;23.73;100.00
52535;BME280;38443;53.164;5.802;2023-06-10T07:29:12;101925.13;;;23.86;100.00
52535;BME280;38443;53.164;5.802;2023-06-10T07:31:38;101922.75;;;23.95;100.00
52535;BME280;38443;53.164;5.802;2023-06-10T07:34:03;101924.97;;;24.15;100.00
52535;BME280;38443;53.164;5.802;2023-06-10T07:36:28;101924.53;;;24.08;100.00
52535;BME280;38443;53.164;5.802;2023-06-10T07:38:54;101918.63;;;24.15;100.00
52535;BME280;38443;53.164;5.802;2023-06-10T07:41:20;101924.56;;;24.47;100.00
52535;BME280;38443;53.164;5.802;2023-06-10T07:43:45;101924.94;;;24.55;100.00
52535;BME280;38443;53.164;5.802;2023-06-10T07:46:11;101922.00;;;24.58;100.00
52535;BME280;38443;53.164;5.802;2023-06-10T07:48:36;101928.88;;;24.51;100.00
52535;BME280;38443;53.164;5.802;2023-06-10T07:51:02;101933.81;;;24.59;100.00
52535;BME280;38443;53.164;5.802;2023-06-10T07:53:27;101934.59;;;24.74;99.87
52535;BME280;38443;53.164;5.802;2023-06-10T07:55:53;101934.66;;;24.85;98.98
52535;BME280;38443;53.164;5.802;2023-06-10T07:58:18;101936.75;;;24.94;97.98
52535;BME280;38443;53.164;5.802;2023-06-10T08:00:44;101932.69;;;25.00;94.40
52535;BME280;38443;53.164;5.802;2023-06-10T08:03:09;101936.38;;;25.12;90.05
52535;BME280;38443;53.164;5.802;2023-06-10T08:05:35;101926.63;;;25.07;86.96
52535;BME280;38443;53.164;5.802;2023-06-10T08:08:00;101930.94;;;24.99;86.08
52535;BME280;38443;53.164;5.802;2023-06-10T08:10:25;101929.47;;;25.19;84.19
52535;BME280;38443;53.164;5.802;2023-06-10T08:12:50;101927.91;;;25.40;84.10
52535;BME280;38443;53.164;5.802;2023-06-10T08:15:16;101925.53;;;25.23;79.73
52535;BME280;38443;53.164;5.802;2023-06-10T08:17:41;101925.72;;;25.33;78.30
52535;BME280;38443;53.164;5.802;2023-06-10T08:20:07;101923.13;;;25.18;80.78
52535;BME280;38443;53.164;5.802;2023-06-10T08:22:32;101930.38;;;24.94;83.14
52535;BME280;38443;53.164;5.802;2023-06-10T08:24:58;101928.31;;;24.72;81.76
52535;BME280;38443;53.164;5.802;2023-06-10T08:27:24;101923.09;;;24.56;81.24
52535;BME280;38443;53.164;5.802;2023-06-10T08:29:50;101934.38;;;24.64;79.35
52535;BME280;38443;53.164;5.802;2023-06-10T08:32:15;101929.84;;;24.88;76.11
52535;BME280;38443;53.164;5.802;2023-06-10T08:34:41;101931.81;;;24.86;70.44
52535;BME280;38443;53.164;5.802;2023-06-10T08:37:07;101947.69;;;24.81;73.34
52535;BME280;38443;53.164;5.802;2023-06-10T08:39:32;101940.03;;;24.86;71.80
52535;BME280;38443;53.164;5.802;2023-06-10T08:44:30;101932.16;;;24.82;68.51
52535;BME280;38443;53.164;5.802;2023-06-10T08:46:59;101942.88;;;24.85;62.79
52535;BME280;38443;53.164;5.802;2023-06-10T08:49:26;101938.19;;;24.74;65.46
52535;BME280;38443;53.164;5.802;2023-06-10T08:51:57;101946.28;;;24.63;65.37
52535;BME280;38443;53.164;5.802;2023-06-10T08:54:26;101932.88;;;24.45;65.38
52535;BME280;38443;53.164;5.802;2023-06-10T08:56:54;101937.19;;;24.75;64.93
52535;BME280;38443;53.164;5.802;2023-06-10T08:59:20;101931.16;;;24.96;61.47
52535;BME280;38443;53.164;5.802;2023-06-10T09:01:47;101930.22;;;25.21;60.47
52535;BME280;38443;53.164;5.802;2023-06-10T09:04:13;101933.53;;;25.13;58.79
52535;BME280;38443;53.164;5.802;2023-06-10T09:06:39;101937.06;;;25.02;58.63
52535;BME280;38443;53.164;5.802;2023-06-10T09:09:06;101943.22;;;25.06;58.02
52535;BME280;38443;53.164;5.802;2023-06-10T09:11:32;101935.84;;;24.94;57.90
52535;BME280;38443;53.164;5.802;2023-06-10T09:13:58;101931.69;;;25.01;56.93
52535;BME280;38443;53.164;5.802;2023-06-10T09:16:24;101933.56;;;25.00;55.14
52535;BME280;38443;53.164;5.802;2023-06-10T09:18:50;101926.41;;;25.11;56.30
52535;BME280;38443;53.164;5.802;2023-06-10T09:21:22;101930.47;;;25.05;56.58
52535;BME280;38443;53.164;5.802;2023-06-10T09:23:47;101924.03;;;25.06;56.48
52535;BME280;38443;53.164;5.802;2023-06-10T09:26:13;101919.63;;;25.16;56.96
52535;BME280;38443;53.164;5.802;2023-06-10T09:28:38;101923.56;;;25.12;56.22
52535;BME280;38443;53.164;5.802;2023-06-10T09:31:06;101925.91;;;24.93;54.18
52535;BME280;38443;53.164;5.802;2023-06-10T09:33:32;101934.78;;;24.96;54.19
52535;BME280;38443;53.164;5.802;2023-06-10T09:36:01;101924.78;;;25.08;53.58
52535;BME280;38443;53.164;5.802;2023-06-10T09:38:31;101922.16;;;25.06;53.92
52535;BME280;38443;53.164;5.802;2023-06-10T09:40:57;101921.28;;;24.93;55.78
52535;BME280;38443;53.164;5.802;2023-06-10T09:43:22;101924.50;;;24.74;54.59
52535;BME280;38443;53.164;5.802;2023-06-10T09:45:51;101922.53;;;24.76;54.60
52535;BME280;38443;53.164;5.802;2023-06-10T09:48:19;101925.69;;;24.83;54.48
52535;BME280;38443;53.164;5.802;2023-06-10T09:50:45;101932.28;;;24.55;54.39
52535;BME280;38443;53.164;5.802;2023-06-10T09:53:11;101923.09;;;24.56;52.58
52535;BME280;38443;53.164;5.802;2023-06-10T09:55:38;101930.38;;;24.42;52.55
52535;BME280;38443;53.164;5.802;2023-06-10T09:58:04;101924.56;;;24.34;52.86
52535;BME280;38443;53.164;5.802;2023-06-10T10:00:31;101926.44;;;24.46;54.25
52535;BME280;38443;53.164;5.802;2023-06-10T10:02:57;101931.59;;;24.51;54.37
52535;BME280;38443;53.164;5.802;2023-06-10T10:05:22;101924.81;;;24.44;53.99
52535;BME280;38443;53.164;5.802;2023-06-10T10:07:48;101929.50;;;24.42;53.75
52535;BME280;38443;53.164;5.802;2023-06-10T10:10:15;101931.25;;;24.43;53.51
52535;BME280;38443;53.164;5.802;2023-06-10T10:12:41;101923.47;;;24.37;53.56
52535;BME280;38443;53.164;5.802;2023-06-10T10:15:08;101922.16;;;24.29;53.46
52535;BME280;38443;53.164;5.802;2023-06-10T10:17:52;101925.53;;;24.33;53.28
52535;BME280;38443;53.164;5.802;2023-06-10T10:20:20;101925.53;;;24.33;53.83
52535;BME280;38443;53.164;5.802;2023-06-10T10:22:49;101914.59;;;24.33;54.01
52535;BME280;38443;53.164;5.802;2023-06-10T10:25:28;101923.91;;;24.43;54.65
52535;BME280;38443;53.164;5.802;2023-06-10T10:28:03;101910.75;;;24.23;53.85
52535;BME280;38443;53.164;5.802;2023-06-10T10:30:38;101924.25;;;24.26;54.22
52535;BME280;38443;53.164;5.802;2023-06-10T10:33:07;101909.66;;;24.25;51.79
52535;BME280;38443;53.164;5.802;2023-06-10T10:35:36;101914.41;;;24.36;51.08
52535;BME280;38443;53.164;5.802;2023-06-10T10:38:02;101913.41;;;24.37;51.36
52535;BME280;38443;53.164;5.802;2023-06-10T10:40:28;101916.84;;;24.54;52.11
52535;BME280;38443;53.164;5.802;2023-06-10T10:42:56;101915.06;;;24.65;52.09
52535;BME280;38443;53.164;5.802;2023-06-10T10:45:21;101920.00;;;24.73;52.16
52535;BME280;38443;53.164;5.802;2023-06-10T10:47:52;101920.88;;;24.86;51.90
52535;BME280;38443;53.164;5.802;2023-06-10T10:50:19;101910.03;;;24.98;51.18
52535;BME280;38443;53.164;5.802;2023-06-10T10:52:59;101906.53;;;24.96;49.35
52535;BME280;38443;53.164;5.802;2023-06-10T10:55:26;101900.22;;;25.06;51.61
52535;BME280;38443;53.164;5.802;2023-06-10T10:57:59;101897.25;;;25.09;52.05
52535;BME280;38443;53.164;5.802;2023-06-10T11:03:07;101895.94;;;25.15;51.24
52535;BME280;38443;53.164;5.802;2023-06-10T11:08:01;101898.59;;;25.04;49.19
52535;BME280;38443;53.164;5.802;2023-06-10T11:12:56;101890.22;;;25.18;49.42
52535;BME280;38443;53.164;5.802;2023-06-10T11:15:29;101893.19;;;25.28;49.55
52535;BME280;38443;53.164;5.802;2023-06-10T11:18:26;101888.53;;;24.92;48.60
52535;BME280;38443;53.164;5.802;2023-06-10T11:21:05;101885.88;;;25.03;47.06
52535;BME280;38443;53.164;5.802;2023-06-10T11:26:16;101884.44;;;25.47;48.56
52535;BME280;38443;53.164;5.802;2023-06-10T11:29:00;101875.16;;;25.61;47.58
52535;BME280;38443;53.164;5.802;2023-06-10T11:31:49;101880.56;;;25.74;47.44
52535;BME280;38443;53.164;5.802;2023-06-10T11:34:15;101883.94;;;25.90;46.82
52535;BME280;38443;53.164;5.802;2023-06-10T11:36:46;101890.72;;;25.84;46.66
52535;BME280;38443;53.164;5.802;2023-06-10T11:39:11;101885.19;;;25.97;47.16
52535;BME280;38443;53.164;5.802;2023-06-10T11:41:38;101880.72;;;26.07;46.30
52535;BME280;38443;53.164;5.802;2023-06-10T11:44:10;101872.75;;;25.80;45.45
52535;BME280;38443;53.164;5.802;2023-06-10T11:46:35;101874.69;;;25.91;46.44
52535;BME280;38443;53.164;5.802;2023-06-10T11:49:02;101877.75;;;26.11;46.48
52535;BME280;38443;53.164;5.802;2023-06-10T11:51:29;101881.00;;;26.16;45.90
52535;BME280;38443;53.164;5.802;2023-06-10T11:53:55;101876.66;;;26.36;45.93
52535;BME280;38443;53.164;5.802;2023-06-10T11:56:22;101875.31;;;26.30;45.54
52535;BME280;38443;53.164;5.802;2023-06-10T11:58:59;101871.66;;;26.18;44.20
52535;BME280;38443;53.164;5.802;2023-06-10T12:01:30;101863.16;;;26.21;45.60
52535;BME280;38443;53.164;5.802;2023-06-10T12:04:03;101869.06;;;26.39;45.18
52535;BME280;38443;53.164;5.802;2023-06-10T12:06:49;101863.69;;;26.38;45.18
52535;BME280;38443;53.164;5.802;2023-06-10T12:11:45;101852.63;;;26.73;44.62
52535;BME280;38443;53.164;5.802;2023-06-10T12:14:11;101848.28;;;26.71;43.71
52535;BME280;38443;53.164;5.802;2023-06-10T12:16:36;101846.16;;;26.74;43.85
52535;BME280;38443;53.164;5.802;2023-06-10T12:19:04;101853.75;;;26.71;43.21
52535;BME280;38443;53.164;5.802;2023-06-10T12:21:31;101845.66;;;26.80;43.37
52535;BME280;38443;53.164;5.802;2023-06-10T12:24:01;101838.38;;;26.68;39.87
52535;BME280;38443;53.164;5.802;2023-06-10T12:26:43;101845.75;;;26.67;39.54
52535;BME280;38443;53.164;5.802;2023-06-10T12:29:16;101839.63;;;26.86;46.25
52535;BME280;38443;53.164;5.802;2023-06-10T12:34:32;101835.63;;;26.57;63.44
52535;BME280;38443;53.164;5.802;2023-06-10T12:36:59;101846.38;;;26.49;61.42
52535;BME280;38443;53.164;5.802;2023-06-10T12:39:24;101847.44;;;26.23;68.82
52535;BME280;38443;53.164;5.802;2023-06-10T12:41:51;101844.56;;;26.02;75.04
52535;BME280;38443;53.164;5.802;2023-06-10T12:44:16;101842.44;;;25.71;83.74
52535;BME280;38443;53.164;5.802;2023-06-10T12:46:42;101839.88;;;25.56;88.59
52535;BME280;38443;53.164;5.802;2023-06-10T12:49:07;101844.03;;;25.62;88.45
52535;BME280;38443;53.164;5.802;2023-06-10T12:51:33;101840.41;;;25.37;94.87
52535;BME280;38443;53.164;5.802;2023-06-10T12:54:02;101839.50;;;25.13;100.00
52535;BME280;38443;53.164;5.802;2023-06-10T12:56:27;101850.81;;;25.08;100.00
52535;BME280;38443;53.164;5.802;2023-06-10T12:58:53;101844.13;;;25.12;100.00